createdAt,value
2022-11-28T00:01:33.212Z,98470.91
2022-11-28T00:04:00.095Z,98470.91
2022-11-28T00:06:27.261Z,98471.69
2022-11-28T00:08:54.846Z,98478.16
2022-11-28T00:11:21.300Z,98484.31
2022-11-28T00:13:47.705Z,98480.81
2022-11-28T00:16:17.153Z,98469.03
2022-11-28T00:18:44.265Z,98473.31
2022-11-28T00:21:14.391Z,98472.50
2022-11-28T00:23:42.576Z,98472.50
2022-11-28T00:26:15.839Z,98471.44
2022-11-28T00:28:42.654Z,98474.13
2022-11-28T00:31:29.302Z,98479.50
2022-11-28T00:33:55.985Z,98477.06
2022-11-28T00:36:23.602Z,98482.44
2022-11-28T00:38:50.875Z,98477.06
2022-11-28T00:41:23.258Z,98480.81
2022-11-28T00:43:51.007Z,98481.63
2022-11-28T00:46:19.224Z,98480.81
2022-11-28T00:48:46.057Z,98468.44
2022-11-28T00:51:15.390Z,98467.41
2022-11-28T00:53:44.394Z,98466.84
2022-11-28T00:56:13.944Z,98474.06
2022-11-28T00:58:41.059Z,98459.84
2022-11-28T01:01:12.740Z,98456.34
2022-11-28T01:03:40.690Z,98468.97
2022-11-28T01:06:08.525Z,98467.34
2022-11-28T01:08:34.926Z,98469.78
2022-11-28T01:11:02.042Z,98468.97
2022-11-28T01:13:28.769Z,98471.66
2022-11-28T01:15:55.341Z,98453.34
2022-11-28T01:18:21.786Z,98438.88
2022-11-28T01:20:48.193Z,98445.88
2022-11-28T01:23:14.593Z,98440.50
2022-11-28T01:25:41.046Z,98445.34
2022-11-28T01:28:07.435Z,98427.63
2022-11-28T01:30:34.175Z,98424.94
2022-11-28T01:33:00.685Z,98437.56
2022-11-28T01:35:27.610Z,98433.81
2022-11-28T01:37:53.992Z,98433.00
2022-11-28T01:40:20.529Z,98434.59
2022-11-28T01:42:46.945Z,98447.78
2022-11-28T01:45:20.632Z,98445.34
2022-11-28T01:47:49.715Z,98445.34
2022-11-28T01:50:16.736Z,98448.03
2022-11-28T01:52:46.879Z,98435.41
2022-11-28T01:55:17.240Z,98441.59
2022-11-28T01:57:43.764Z,98442.41
2022-11-28T02:00:13.918Z,98432.50
2022-11-28T02:02:58.623Z,98429.25
2022-11-28T02:05:25.440Z,98416.59
2022-11-28T02:07:52.675Z,98419.53
2022-11-28T02:10:26.998Z,98414.16
2022-11-28T02:13:15.250Z,98417.91
2022-11-28T02:16:01.514Z,98410.66
2022-11-28T02:18:52.358Z,98407.16
2022-11-28T02:21:37.004Z,98403.69
2022-11-28T02:24:31.281Z,98406.38
2022-11-28T02:27:09.837Z,98402.88
2022-11-28T02:30:01.771Z,98379.25
2022-11-28T02:32:46.141Z,98376.78
2022-11-28T02:35:21.691Z,98369.81
2022-11-28T02:37:56.536Z,98355.03
2022-11-28T02:40:29.355Z,98361.22
2022-11-28T02:43:11.660Z,98355.03
2022-11-28T02:45:57.919Z,98344.81
2022-11-28T02:48:31.931Z,98344.81
2022-11-28T02:51:31.431Z,98326.59
2022-11-28T02:54:00.119Z,98338.94
2022-11-28T02:56:26.759Z,98330.63
2022-11-28T02:58:53.459Z,98348.34
2022-11-28T03:01:27.858Z,98356.13
2022-11-28T03:04:19.296Z,98357.78
2022-11-28T03:07:00.804Z,98354.00
2022-11-28T03:09:33.166Z,98339.50
2022-11-28T03:12:27.826Z,98321.78
2022-11-28T03:15:08.206Z,98293.34
2022-11-28T03:17:53.062Z,98333.59
2022-11-28T03:20:22.671Z,98303.00
2022-11-28T03:23:07.928Z,98312.94
2022-11-28T03:25:38.766Z,98326.34
2022-11-28T03:28:14.662Z,98318.03
2022-11-28T03:30:57.277Z,98315.84
2022-11-28T03:33:27.813Z,98312.38
2022-11-28T03:36:02.776Z,98328.75
2022-11-28T03:38:36.185Z,98330.63
2022-11-28T03:41:09.461Z,98331.41
2022-11-28T03:43:43.090Z,98320.69
2022-11-28T03:46:15.965Z,98326.84
2022-11-28T03:48:47.359Z,98319.63
2022-11-28T03:51:37.016Z,98325.56
2022-11-28T03:54:10.542Z,98317.50
2022-11-28T03:56:57.275Z,98305.38
2022-11-28T03:59:32.475Z,98326.31
2022-11-28T04:02:37.534Z,98319.06
2022-11-28T04:05:06.652Z,98298.13
2022-11-28T04:08:10.129Z,98302.66
2022-11-28T04:11:01.185Z,98294.59
2022-11-28T04:13:41.603Z,98299.16
2022-11-28T04:16:18.915Z,98300.25
2022-11-28T04:18:57.783Z,98305.59
2022-11-28T04:21:35.717Z,98302.94
2022-11-28T04:24:14.436Z,98293.25
2022-11-28T04:26:45.788Z,98300.25
2022-11-28T04:29:17.856Z,98310.97
2022-11-28T04:31:46.219Z,98310.97
2022-11-28T04:34:17.707Z,98314.22
2022-11-28T04:36:45.910Z,98305.34
2022-11-28T04:39:17.874Z,98313.16
2022-11-28T04:41:51.507Z,98296.50
2022-11-28T04:44:41.610Z,98300.25
2022-11-28T04:47:08.430Z,98300.25
2022-11-28T04:49:34.866Z,98294.88
2022-11-28T04:52:20.218Z,98298.63
2022-11-28T04:55:09.920Z,98294.34
2022-11-28T04:57:40.504Z,98287.91
2022-11-28T05:00:10.442Z,98299.44
2022-11-28T05:02:40.971Z,98282.53
2022-11-28T05:05:15.534Z,98278.78
2022-11-28T05:07:42.209Z,98277.16
2022-11-28T05:10:10.135Z,98288.69
2022-11-28T05:12:36.643Z,98287.09
2022-11-28T05:15:03.885Z,98275.53
2022-11-28T05:17:30.266Z,98273.94
2022-11-28T05:19:56.875Z,98272.31
2022-11-28T05:22:23.373Z,98277.69
2022-11-28T05:24:49.706Z,98276.88
2022-11-28T05:27:16.269Z,98283.06
2022-11-28T05:29:48.118Z,98278.19
2022-11-28T05:32:18.234Z,98279.81
2022-11-28T05:34:44.692Z,98286.25
2022-11-28T05:37:11.318Z,98290.53
2022-11-28T05:39:37.786Z,98292.19
2022-11-28T05:42:04.396Z,98299.66
2022-11-28T05:44:30.781Z,98295.38
2022-11-28T05:46:57.171Z,98299.63
2022-11-28T05:49:25.438Z,98303.16
2022-11-28T05:51:51.772Z,98307.69
2022-11-28T05:54:18.165Z,98300.69
2022-11-28T05:56:44.661Z,98303.94
2022-11-28T05:59:13.171Z,98296.44
2022-11-28T06:01:39.738Z,98303.41
2022-11-28T06:04:06.241Z,98313.66
2022-11-28T06:06:34.927Z,98309.38
2022-11-28T06:09:02.022Z,98311.56
2022-11-28T06:11:30.467Z,98310.47
2022-11-28T06:13:57.173Z,98302.44
2022-11-28T06:16:26.935Z,98300.81
2022-11-28T06:18:55.263Z,98310.47
2022-11-28T06:21:22.899Z,98301.41
2022-11-28T06:23:49.413Z,98309.44
2022-11-28T06:26:18.668Z,98300.31
2022-11-28T06:28:45.743Z,98311.59
2022-11-28T06:31:18.640Z,98315.38
2022-11-28T06:33:45.681Z,98310.03
2022-11-28T06:36:14.130Z,98306.78
2022-11-28T06:38:40.913Z,98310.81
2022-11-28T06:41:09.963Z,98308.16
2022-11-28T06:43:36.447Z,98305.72
2022-11-28T06:46:03.170Z,98301.97
2022-11-28T06:48:29.893Z,98303.63
2022-11-28T06:51:03.288Z,98318.88
2022-11-28T06:53:31.534Z,98301.97
2022-11-28T06:55:58.547Z,98301.97
2022-11-28T06:58:25.001Z,98300.34
2022-11-28T07:00:51.862Z,98309.50
2022-11-28T07:03:18.292Z,98305.72
2022-11-28T07:05:44.714Z,98308.97
2022-11-28T07:08:11.258Z,98301.47
2022-11-28T07:10:37.663Z,98304.19
2022-11-28T07:13:05.704Z,98309.28
2022-11-28T07:15:32.319Z,98312.78
2022-11-28T07:17:58.699Z,98297.47
2022-11-28T07:20:25.047Z,98301.50
2022-11-28T07:22:52.306Z,98310.94
2022-11-28T07:25:18.757Z,98312.53
2022-11-28T07:27:45.181Z,98326.50
2022-11-28T07:30:11.756Z,98324.63
2022-11-28T07:32:41.599Z,98325.16
2022-11-28T07:35:08.912Z,98335.69
2022-11-28T07:37:36.319Z,98333.25
2022-11-28T07:40:03.902Z,98343.50
2022-11-28T07:42:30.349Z,98334.91
2022-11-28T07:44:56.843Z,98333.81
2022-11-28T07:47:23.261Z,98333.81
2022-11-28T07:49:49.757Z,98323.88
2022-11-28T07:52:16.159Z,98331.72
2022-11-28T07:54:42.645Z,98326.34
2022-11-28T07:57:13.200Z,98324.69
2022-11-28T07:59:40.754Z,98321.78
2022-11-28T08:02:07.480Z,98310.47
2022-11-28T08:04:35.849Z,98318.28
2022-11-28T08:07:02.244Z,98314.50
2022-11-28T08:09:29.379Z,98325.25
2022-11-28T08:11:55.809Z,98320.44
2022-11-28T08:14:22.187Z,98327.44
2022-11-28T08:16:49.579Z,98323.13
2022-11-28T08:19:16.058Z,98324.75
2022-11-28T08:21:43.522Z,98323.94
2022-11-28T08:24:11.442Z,98331.47
2022-11-28T08:26:38.211Z,98334.44
2022-11-28T08:29:07.677Z,98334.97
2022-11-28T08:31:37.168Z,98331.78
2022-11-28T08:34:06.986Z,98336.63
2022-11-28T08:36:34.727Z,98319.97
2022-11-28T08:39:22.993Z,98330.19
2022-11-28T08:41:49.805Z,98331.00
2022-11-28T08:44:16.239Z,98336.63
2022-11-28T08:46:42.719Z,98327.53
2022-11-28T08:49:09.227Z,98320.00
2022-11-28T08:51:36.653Z,98315.72
2022-11-28T08:54:03.371Z,98304.44
2022-11-28T08:56:29.795Z,98301.19
2022-11-28T08:58:56.280Z,98304.69
2022-11-28T09:01:24.994Z,98311.16
2022-11-28T09:03:53.737Z,98310.63
2022-11-28T09:06:21.202Z,98303.91
2022-11-28T09:08:48.875Z,98313.88
2022-11-28T09:11:19.455Z,98315.72
2022-11-28T09:13:46.128Z,98322.22
2022-11-28T09:16:13.532Z,98322.75
2022-11-28T09:18:40.584Z,98317.91
2022-11-28T09:21:11.862Z,98318.19
2022-11-28T09:23:41.237Z,98321.16
2022-11-28T09:26:17.561Z,98323.28
2022-11-28T09:28:45.357Z,98317.38
2022-11-28T09:31:13.228Z,98317.13
2022-11-28T09:33:42.798Z,98311.72
2022-11-28T09:36:12.035Z,98314.16
2022-11-28T09:38:39.132Z,98316.59
2022-11-28T09:41:30.492Z,98323.06
2022-11-28T09:44:03.253Z,98336.53
2022-11-28T09:46:35.924Z,98329.78
2022-11-28T09:49:12.526Z,98326.03
2022-11-28T09:52:27.051Z,98341.66
2022-11-28T09:55:02.039Z,98323.34
2022-11-28T09:57:39.031Z,98326.28
2022-11-28T10:00:11.199Z,98323.34
2022-11-28T10:02:55.953Z,98318.22
2022-11-28T10:05:35.381Z,98307.75
2022-11-28T10:08:19.246Z,98306.38
2022-11-28T10:11:04.630Z,98304.22
2022-11-28T10:14:08.146Z,98302.88
2022-11-28T10:17:04.620Z,98321.47
2022-11-28T10:19:57.748Z,98326.03
2022-11-28T10:22:38.911Z,98327.13
2022-11-28T10:25:16.474Z,98331.41
2022-11-28T10:27:43.091Z,98323.88
2022-11-28T10:30:20.328Z,98324.94
2022-11-28T10:32:57.874Z,98322.50
2022-11-28T10:35:40.668Z,98331.41
2022-11-28T10:38:13.047Z,98329.78
2022-11-28T10:41:12.896Z,98316.56
2022-11-28T10:44:00.493Z,98307.69
2022-11-28T10:46:51.362Z,98311.47
2022-11-28T10:49:50.590Z,98303.63
2022-11-28T10:52:37.780Z,98310.38
2022-11-28T10:55:23.787Z,98308.72
2022-11-28T10:57:56.302Z,98305.50
2022-11-28T11:00:22.937Z,98312.50
2022-11-28T11:02:52.910Z,98318.41
2022-11-28T11:05:31.473Z,98314.63
2022-11-28T11:08:24.547Z,98308.16
2022-11-28T11:11:19.991Z,98312.22
2022-11-28T11:14:04.110Z,98308.16
2022-11-28T11:16:53.253Z,98309.78
2022-11-28T11:19:25.586Z,98302.50
2022-11-28T11:22:24.122Z,98309.25
2022-11-28T11:25:13.413Z,98314.63
2022-11-28T11:27:54.489Z,98307.88
2022-11-28T11:30:31.370Z,98298.47
2022-11-28T11:33:00.791Z,98303.56
2022-11-28T11:35:31.773Z,98307.88
2022-11-28T11:38:17.466Z,98297.91
2022-11-28T11:40:44.407Z,98291.72
2022-11-28T11:43:26.783Z,98301.13
2022-11-28T11:46:10.365Z,98289.53
2022-11-28T11:48:38.005Z,98292.22
2022-11-28T11:51:05.157Z,98286.84
2022-11-28T11:53:31.686Z,98287.63
2022-11-28T11:56:02.240Z,98288.19
2022-11-28T11:58:40.285Z,98286.81
2022-11-28T12:01:11.534Z,98280.63
2022-11-28T12:03:56.788Z,98276.63
2022-11-28T12:06:31.309Z,98275.81
2022-11-28T12:09:13.226Z,98272.56
2022-11-28T12:11:47.045Z,98273.38
2022-11-28T12:14:32.785Z,98284.44
2022-11-28T12:17:47.823Z,98287.13
2022-11-28T12:20:22.117Z,98285.78
2022-11-28T12:23:17.039Z,98283.31
2022-11-28T12:26:25.026Z,98276.31
2022-11-28T12:29:30.530Z,98278.97
2022-11-28T12:32:19.466Z,98273.03
2022-11-28T12:34:52.521Z,98273.56
2022-11-28T12:38:09.442Z,98272.47
2022-11-28T12:40:47.551Z,98262.50
2022-11-28T12:43:20.182Z,98264.38
2022-11-28T12:46:05.526Z,98256.31
2022-11-28T12:48:59.911Z,98254.16
2022-11-28T12:51:26.336Z,98250.38
2022-11-28T12:54:16.034Z,98245.78
2022-11-28T12:56:59.096Z,98248.47
2022-11-28T12:59:40.182Z,98247.69
2022-11-28T13:02:26.063Z,98250.63
2022-11-28T13:05:11.484Z,98268.16
2022-11-28T13:07:43.261Z,98260.66
2022-11-28T13:10:39.336Z,98252.00
2022-11-28T13:13:39.972Z,98249.31
2022-11-28T13:16:15.921Z,98239.09
2022-11-28T13:18:50.652Z,98247.69
2022-11-28T13:21:37.156Z,98242.81
2022-11-28T13:24:16.517Z,98243.38
2022-11-28T13:26:47.592Z,98244.97
2022-11-28T13:29:17.633Z,98236.31
2022-11-28T13:32:01.903Z,98236.31
2022-11-28T13:34:29.967Z,98233.09
2022-11-28T13:40:12.315Z,98232.53
2022-11-28T13:43:08.151Z,98234.13
2022-11-28T13:45:39.319Z,98231.16
2022-11-28T13:49:05.987Z,98233.31
2022-11-28T13:51:30.535Z,98229.81
2022-11-28T13:54:16.949Z,98229.31
2022-11-28T13:57:07.722Z,98226.91
2022-11-28T13:59:34.881Z,98228.75
2022-11-28T14:02:04.876Z,98232.03
2022-11-28T14:04:32.750Z,98221.25
2022-11-28T14:07:05.470Z,98218.03
2022-11-28T14:09:49.587Z,98222.84
2022-11-28T14:12:22.037Z,98222.84
2022-11-28T14:14:58.081Z,98219.06
2022-11-28T14:17:41.484Z,98221.25
2022-11-28T14:20:27.114Z,98220.44
2022-11-28T14:23:16.377Z,98215.03
2022-11-28T14:25:49.011Z,98224.75
2022-11-28T14:28:27.123Z,98215.84
2022-11-28T14:31:24.610Z,98218.53
2022-11-28T14:33:59.563Z,98218.53
2022-11-28T14:36:29.732Z,98223.94
2022-11-28T14:39:16.596Z,98221.25
2022-11-28T14:42:05.329Z,98218.53
2022-11-28T14:44:55.992Z,98225.53
2022-11-28T14:47:29.405Z,98219.34
2022-11-28T14:50:05.785Z,98222.84
2022-11-28T14:52:39.627Z,98224.44
2022-11-28T14:55:12.773Z,98230.41
2022-11-28T14:57:54.133Z,98228.81
2022-11-28T15:00:56.088Z,98226.66
2022-11-28T15:03:40.634Z,98223.72
2022-11-28T15:06:37.421Z,98235.84
2022-11-28T15:09:49.269Z,98235.84
2022-11-28T15:13:09.630Z,98227.25
2022-11-28T15:16:33.172Z,98227.00
2022-11-28T15:20:39.882Z,98236.16
2022-11-28T15:23:33.705Z,98234.31
2022-11-28T15:34:26.323Z,98219.78
2022-11-28T15:43:46.482Z,98237.06
2022-11-28T15:46:38.390Z,98234.91
2022-11-28T15:49:55.859Z,98236.50
2022-11-28T15:53:43.406Z,98238.94
2022-11-28T16:04:11.332Z,98235.19
2022-11-28T16:06:41.399Z,98236.53
2022-11-28T16:09:25.943Z,98238.69
2022-11-28T16:11:54.262Z,98236.28
2022-11-28T16:14:31.553Z,98231.19
2022-11-28T16:16:59.337Z,98241.41
2022-11-28T16:19:30.718Z,98239.78
2022-11-28T16:22:00.966Z,98243.03
2022-11-28T16:24:38.692Z,98247.63
2022-11-28T16:27:06.513Z,98243.28
2022-11-28T16:29:35.652Z,98247.88
2022-11-28T16:32:08.610Z,98247.88
2022-11-28T16:34:49.386Z,98237.09
2022-11-28T16:37:27.629Z,98245.19
2022-11-28T16:40:13.434Z,98245.75
2022-11-28T16:42:40.616Z,98255.44
2022-11-28T16:45:33.976Z,98244.13
2022-11-28T16:52:24.994Z,98250.59
2022-11-28T16:55:12.987Z,98248.97
2022-11-28T16:58:20.900Z,98247.09
2022-11-28T17:01:45.333Z,98247.34
2022-11-28T17:16:34.926Z,98247.91
2022-11-28T17:19:30.039Z,98242.53
2022-11-28T17:29:01.009Z,98242.00
2022-11-28T17:45:22.833Z,98232.56
2022-11-28T17:47:49.772Z,98234.97
2022-11-28T17:50:21.697Z,98231.25
2022-11-28T17:52:48.416Z,98226.66
2022-11-28T17:55:18.484Z,98235.53
2022-11-28T17:57:45.213Z,98231.78
2022-11-28T18:00:15.258Z,98233.66
2022-11-28T18:02:42.206Z,98238.25
2022-11-28T18:05:09.494Z,98232.34
2022-11-28T18:07:36.117Z,98236.06
2022-11-28T18:10:05.668Z,98237.97
2022-11-28T18:12:32.516Z,98243.91
2022-11-28T18:15:03.448Z,98243.09
2022-11-28T18:17:30.209Z,98251.69
2022-11-28T18:19:58.026Z,98250.09
2022-11-28T18:22:24.973Z,98256.56
2022-11-28T18:24:51.607Z,98254.13
2022-11-28T18:27:18.243Z,98250.38
2022-11-28T18:29:47.210Z,98257.63
2022-11-28T18:32:13.738Z,98249.53
2022-11-28T18:34:40.468Z,98249.28
2022-11-28T18:37:07.324Z,98246.31
2022-11-28T18:39:35.346Z,98239.31
2022-11-28T18:42:02.057Z,98243.09
2022-11-28T18:44:28.644Z,98246.03
2022-11-28T18:46:55.222Z,98245.53
2022-11-28T18:49:22.286Z,98263.00
2022-11-28T18:51:48.932Z,98261.38
2022-11-28T18:54:21.307Z,98263.56
2022-11-28T18:56:48.995Z,98268.38
2022-11-28T18:59:15.650Z,98254.97
2022-11-28T19:01:43.635Z,98266.78
2022-11-28T19:04:12.756Z,98270.03
2022-11-28T19:06:40.870Z,98264.66
2022-11-28T19:09:09.917Z,98268.38
2022-11-28T19:11:36.700Z,98261.69
2022-11-28T19:14:04.251Z,98260.59
2022-11-28T19:16:33.333Z,98256.81
2022-11-28T19:19:01.127Z,98268.94
2022-11-28T19:21:31.817Z,98260.31
2022-11-28T19:23:59.480Z,98268.13
2022-11-28T19:26:27.514Z,98271.63
2022-11-28T19:28:54.923Z,98270.28
2022-11-28T19:31:26.904Z,98274.59
2022-11-28T19:34:02.448Z,98267.59
2022-11-28T19:36:30.483Z,98272.72
2022-11-28T19:38:57.979Z,98271.63
2022-11-28T19:41:24.909Z,98265.44
2022-11-28T19:43:51.809Z,98263.28
2022-11-28T19:46:19.302Z,98263.56
2022-11-28T19:48:46.518Z,98263.56
2022-11-28T19:51:16.265Z,98265.16
2022-11-28T19:53:44.077Z,98258.44
2022-11-28T19:56:18.249Z,98256.00
2022-11-28T19:58:46.026Z,98258.69
2022-11-28T20:01:20.693Z,98262.47
2022-11-28T20:03:49.225Z,98269.47
2022-11-28T20:06:24.004Z,98270.56
2022-11-28T20:08:52.067Z,98268.38
2022-11-28T20:11:22.353Z,98268.09
2022-11-28T20:13:50.324Z,98269.47
2022-11-28T20:16:22.853Z,98268.94
2022-11-28T20:18:52.372Z,98270.56
2022-11-28T20:21:20.358Z,98259.78
2022-11-28T20:23:49.545Z,98275.94
2022-11-28T20:26:18.436Z,98272.69
2022-11-28T20:28:46.018Z,98273.50
2022-11-28T20:31:18.478Z,98277.53
2022-11-28T20:33:45.250Z,98278.09
2022-11-28T20:36:14.093Z,98285.34
2022-11-28T20:38:40.920Z,98289.66
2022-11-28T20:41:09.988Z,98289.41
2022-11-28T20:43:39.215Z,98289.66
2022-11-28T20:46:09.060Z,98295.31
2022-11-28T20:48:36.369Z,98294.78
2022-11-28T20:51:03.142Z,98290.22
2022-11-28T20:53:31.526Z,98294.22
2022-11-28T20:56:03.121Z,98289.41
2022-11-28T20:58:31.195Z,98289.94
2022-11-28T21:00:58.197Z,98281.31
2022-11-28T21:03:25.758Z,98289.41
2022-11-28T21:05:57.825Z,98288.59
2022-11-28T21:08:31.430Z,98287.78
2022-11-28T21:10:58.009Z,98275.66
2022-11-28T21:13:24.670Z,98287.78
2022-11-28T21:15:53.384Z,98285.91
2022-11-28T21:18:20.265Z,98286.19
2022-11-28T21:20:47.293Z,98282.69
2022-11-28T21:23:16.414Z,98290.22
2022-11-28T21:25:44.212Z,98291.53
2022-11-28T21:28:11.861Z,98292.63
2022-11-28T21:30:45.019Z,98290.47
2022-11-28T21:33:14.705Z,98293.41
2022-11-28T21:35:41.463Z,98288.88
2022-11-28T21:38:08.340Z,98296.66
2022-11-28T21:40:34.918Z,98292.09
2022-11-28T21:43:02.017Z,98293.97
2022-11-28T21:45:28.512Z,98293.97
2022-11-28T21:47:55.111Z,98292.63
2022-11-28T21:50:25.266Z,98293.19
2022-11-28T21:52:52.001Z,98296.16
2022-11-28T21:55:18.890Z,98299.66
2022-11-28T21:57:45.814Z,98294.78
2022-11-28T22:00:31.321Z,98294.78
2022-11-28T22:03:05.853Z,98292.09
2022-11-28T22:05:34.578Z,98293.19
2022-11-28T22:08:01.520Z,98291.56
2022-11-28T22:10:28.465Z,98293.69
2022-11-28T22:12:58.280Z,98299.91
2022-11-28T22:15:25.129Z,98294.25
2022-11-28T22:17:51.670Z,98304.47
2022-11-28T22:20:18.523Z,98289.97
2022-11-28T22:22:47.589Z,98296.94
2022-11-28T22:25:14.184Z,98302.88
2022-11-28T22:27:41.117Z,98290.47
2022-11-28T22:30:08.494Z,98287.78
2022-11-28T22:32:35.098Z,98301.25
2022-11-28T22:35:02.732Z,98296.94
2022-11-28T22:37:29.364Z,98302.06
2022-11-28T22:39:55.972Z,98299.66
2022-11-28T22:42:22.386Z,98300.16
2022-11-28T22:44:48.794Z,98304.22
2022-11-28T22:47:15.387Z,98301.78
2022-11-28T22:49:42.010Z,98307.72
2022-11-28T22:52:08.646Z,98304.47
2022-11-28T22:54:35.192Z,98303.38
2022-11-28T22:57:01.703Z,98307.44
2022-11-28T22:59:29.484Z,98299.66
2022-11-28T23:01:56.227Z,98302.34
2022-11-28T23:04:22.898Z,98308.53
2022-11-28T23:06:49.460Z,98311.75
2022-11-28T23:09:16.067Z,98306.09
2022-11-28T23:11:43.055Z,98307.72
2022-11-28T23:14:12.868Z,98305.03
2022-11-28T23:16:40.473Z,98300.69
2022-11-28T23:19:17.636Z,98313.63
2022-11-28T23:21:47.333Z,98303.16
2022-11-28T23:24:20.328Z,98303.94
2022-11-28T23:26:48.165Z,98309.06
2022-11-28T23:29:15.643Z,98309.34
2022-11-28T23:31:43.593Z,98310.94
2022-11-28T23:34:10.730Z,98302.06
2022-11-28T23:36:42.833Z,98310.13
2022-11-28T23:39:18.470Z,98316.06
2022-11-28T23:41:45.743Z,98309.34
2022-11-28T23:44:13.902Z,98314.16
2022-11-28T23:46:40.985Z,98305.56
2022-11-28T23:49:08.277Z,98311.19
2022-11-28T23:51:35.822Z,98315.78
2022-11-28T23:54:02.406Z,98315.25
2022-11-28T23:56:31.208Z,98316.31
2022-11-28T23:59:01.027Z,98316.31
